createdAt,value
2017-11-04T00:01:42.629Z,129.87
2017-11-04T00:04:10.881Z,131.40
2017-11-04T00:06:39.165Z,134.70
2017-11-04T00:09:07.440Z,134.57
2017-11-04T00:11:35.691Z,110.87
2017-11-04T00:14:04.709Z,129.68
2017-11-04T00:16:32.966Z,182.37
2017-11-04T00:19:01.370Z,152.50
2017-11-04T00:21:29.613Z,157.87
2017-11-04T00:23:57.866Z,185.00
2017-11-04T00:26:26.113Z,148.27
2017-11-04T00:28:54.370Z,118.83
2017-11-04T00:31:22.621Z,122.80
2017-11-04T00:33:51.646Z,163.73
2017-11-04T00:36:19.885Z,211.37
2017-11-04T00:38:48.911Z,167.67
2017-11-04T00:41:17.153Z,178.60
2017-11-04T00:43:46.177Z,125.53
2017-11-04T00:46:14.438Z,143.43
2017-11-04T00:48:43.453Z,170.43
2017-11-04T00:51:11.705Z,151.40
2017-11-04T00:53:39.969Z,151.97
2017-11-04T00:56:08.986Z,121.60
2017-11-04T00:58:37.243Z,129.70
2017-11-04T01:01:05.501Z,124.87
2017-11-04T01:03:33.753Z,119.80
2017-11-04T01:06:02.001Z,145.00
2017-11-04T01:08:30.257Z,109.60
2017-11-04T01:10:58.510Z,150.73
2017-11-04T01:13:27.533Z,184.13
2017-11-04T01:15:55.770Z,178.83
2017-11-04T01:18:24.027Z,133.07
2017-11-04T01:20:52.277Z,145.23
2017-11-04T01:23:20.538Z,163.90
2017-11-04T01:25:48.796Z,181.05
2017-11-04T01:28:17.810Z,169.90
2017-11-04T01:30:46.063Z,179.53
2017-11-04T01:33:15.087Z,149.10
2017-11-04T01:35:43.333Z,156.63
2017-11-04T01:38:11.593Z,157.17
2017-11-04T01:40:40.607Z,161.90
2017-11-04T01:43:08.856Z,151.67
2017-11-04T01:45:37.102Z,134.27
2017-11-04T01:48:05.355Z,119.97
2017-11-04T01:50:33.610Z,148.55
2017-11-04T01:53:01.874Z,145.20
2017-11-04T01:55:30.892Z,124.67
2017-11-04T01:57:59.151Z,161.48
2017-11-04T02:00:27.393Z,140.00
2017-11-04T02:02:55.653Z,164.50
2017-11-04T02:05:23.900Z,162.80
2017-11-04T02:07:52.149Z,146.43
2017-11-04T02:10:20.410Z,185.53
2017-11-04T02:12:49.422Z,164.20
2017-11-04T02:15:17.678Z,163.00
2017-11-04T02:17:46.691Z,135.13
2017-11-04T02:20:14.949Z,154.33
2017-11-04T02:22:43.962Z,144.87
2017-11-04T02:25:12.217Z,151.67
2017-11-04T02:27:41.241Z,192.50
2017-11-04T02:30:09.500Z,111.87
2017-11-04T02:32:37.754Z,152.93
2017-11-04T02:35:06.783Z,156.17
2017-11-04T02:37:35.024Z,109.50
2017-11-04T02:40:04.042Z,170.53
2017-11-04T02:42:32.294Z,182.87
2017-11-04T02:45:01.323Z,140.43
2017-11-04T02:47:29.578Z,152.57
2017-11-04T02:49:57.828Z,151.00
2017-11-04T02:52:26.069Z,159.47
2017-11-04T02:54:54.327Z,182.37
2017-11-04T02:57:22.569Z,178.13
2017-11-04T02:59:51.589Z,173.27
2017-11-04T03:02:19.835Z,172.80
2017-11-04T03:04:48.869Z,197.70
2017-11-04T03:07:17.118Z,160.17
2017-11-04T03:09:45.370Z,152.13
2017-11-04T03:12:13.614Z,161.17
2017-11-04T03:14:41.875Z,160.20
2017-11-04T03:17:10.128Z,171.33
2017-11-04T03:19:38.377Z,126.43
2017-11-04T03:22:07.391Z,126.17
2017-11-04T03:24:35.641Z,139.13
2017-11-04T03:27:04.655Z,109.63
2017-11-04T03:29:32.906Z,92.50
2017-11-04T03:32:01.159Z,135.67
2017-11-04T03:34:29.411Z,120.70
2017-11-04T03:36:57.655Z,152.60
2017-11-04T03:39:25.938Z,130.07
2017-11-04T03:41:54.189Z,149.90
2017-11-04T03:44:23.218Z,127.37
2017-11-04T03:46:51.476Z,107.70
2017-11-04T03:49:19.742Z,134.68
2017-11-04T03:51:48.762Z,111.13
2017-11-04T03:54:17.025Z,166.77
2017-11-04T03:56:45.285Z,155.77
2017-11-04T03:59:14.304Z,147.17
2017-11-04T04:01:42.562Z,133.30
2017-11-04T04:04:11.580Z,95.13
2017-11-04T04:06:39.865Z,126.33
2017-11-04T04:09:08.121Z,121.37
2017-11-04T04:11:36.371Z,102.00
2017-11-04T04:14:05.389Z,99.53
2017-11-04T04:16:33.642Z,167.37
2017-11-04T04:19:02.669Z,124.97
2017-11-04T04:21:30.923Z,107.93
2017-11-04T04:23:59.195Z,210.60
2017-11-04T04:26:27.457Z,148.52
2017-11-04T04:28:56.478Z,131.30
2017-11-04T04:31:24.727Z,175.00
2017-11-04T04:33:53.746Z,144.43
2017-11-04T04:36:21.986Z,189.83
2017-11-04T04:38:51.010Z,213.37
2017-11-04T04:41:19.290Z,193.13
2017-11-04T04:43:47.546Z,129.10
2017-11-04T04:46:16.568Z,202.20
2017-11-04T04:48:44.831Z,179.30
2017-11-04T04:51:13.087Z,167.33
2017-11-04T04:53:42.098Z,179.23
2017-11-04T04:56:10.353Z,165.23
2017-11-04T04:58:39.389Z,199.93
2017-11-04T05:01:07.638Z,123.97
2017-11-04T05:03:35.886Z,152.80
2017-11-04T05:06:04.141Z,108.90
2017-11-04T05:08:32.394Z,131.50
2017-11-04T05:11:00.654Z,147.47
2017-11-04T05:13:28.905Z,202.07
2017-11-04T05:15:57.943Z,133.97
2017-11-04T05:18:26.181Z,109.30
2017-11-04T05:20:54.431Z,156.63
2017-11-04T05:23:22.675Z,140.20
2017-11-04T05:25:50.928Z,97.50
2017-11-04T05:28:19.175Z,150.33
2017-11-04T05:30:48.190Z,133.43
2017-11-04T05:33:16.439Z,145.57
2017-11-04T05:35:45.463Z,180.40
2017-11-04T05:38:13.709Z,106.30
2017-11-04T05:40:42.732Z,103.27
2017-11-04T05:43:10.977Z,117.00
2017-11-04T05:45:39.999Z,103.63
2017-11-04T05:48:08.242Z,118.93
2017-11-04T05:50:37.282Z,150.97
2017-11-04T05:53:05.509Z,123.73
2017-11-04T05:55:34.543Z,228.13
2017-11-04T05:58:02.788Z,155.37
2017-11-04T06:00:31.810Z,214.73
2017-11-04T06:03:00.058Z,159.23
2017-11-04T06:05:29.083Z,162.87
2017-11-04T06:07:57.323Z,179.47
2017-11-04T06:10:26.343Z,142.30
2017-11-04T06:12:54.590Z,181.57
2017-11-04T06:15:23.611Z,123.60
2017-11-04T06:17:51.861Z,146.63
2017-11-04T06:20:20.125Z,163.47
2017-11-04T06:22:49.134Z,132.47
2017-11-04T06:25:18.153Z,155.60
2017-11-04T06:27:46.402Z,213.07
2017-11-04T06:30:15.425Z,221.83
2017-11-04T06:32:43.676Z,161.10
2017-11-04T06:35:11.933Z,111.27
2017-11-04T06:37:40.952Z,136.60
2017-11-04T06:40:09.202Z,117.77
2017-11-04T06:42:38.214Z,134.63
2017-11-04T06:45:06.480Z,99.53
2017-11-04T06:47:35.485Z,111.90
2017-11-04T06:50:03.745Z,132.03
2017-11-04T06:52:32.758Z,95.80
2017-11-04T06:55:01.017Z,100.93
2017-11-04T06:57:30.030Z,143.43
2017-11-04T06:59:58.283Z,113.37
2017-11-04T07:02:27.297Z,129.30
2017-11-04T07:04:55.553Z,123.47
2017-11-04T07:07:24.581Z,114.17
2017-11-04T07:09:52.825Z,94.03
2017-11-04T07:12:21.841Z,96.23
2017-11-04T07:14:50.094Z,145.00
2017-11-04T07:17:18.350Z,84.70
2017-11-04T07:19:47.321Z,93.93
2017-11-04T07:22:15.569Z,95.27
2017-11-04T07:24:43.822Z,78.63
2017-11-04T07:27:12.069Z,78.13
2017-11-04T07:29:41.089Z,75.90
2017-11-04T07:32:09.336Z,72.00
2017-11-04T07:34:37.592Z,82.80
2017-11-04T07:37:05.846Z,70.93
2017-11-04T07:39:34.101Z,66.93
2017-11-04T07:42:02.348Z,63.93
2017-11-04T07:44:31.370Z,68.27
2017-11-04T07:46:59.614Z,61.73
2017-11-04T07:49:28.628Z,60.87
2017-11-04T07:51:56.874Z,63.90
2017-11-04T07:54:25.126Z,58.27
2017-11-04T07:56:53.367Z,54.80
2017-11-04T07:59:21.603Z,56.07
2017-11-04T08:01:50.620Z,69.23
2017-11-04T08:04:21.810Z,71.07
2017-11-04T08:06:50.826Z,76.13
2017-11-04T08:09:19.065Z,85.90
2017-11-04T08:11:47.310Z,56.90
2017-11-04T08:14:15.554Z,55.93
2017-11-04T08:16:43.806Z,51.23
2017-11-04T08:19:12.809Z,51.33
2017-11-04T08:21:41.063Z,49.47
2017-11-04T08:24:09.309Z,49.63
2017-11-04T08:26:37.551Z,42.87
2017-11-04T08:29:05.789Z,38.07
2017-11-04T08:31:34.038Z,36.73
2017-11-04T08:34:02.281Z,36.07
2017-11-04T08:36:31.289Z,36.67
2017-11-04T08:38:59.527Z,37.87
2017-11-04T08:41:27.779Z,38.20
2017-11-04T08:43:56.782Z,39.33
2017-11-04T08:46:25.021Z,38.97
2017-11-04T08:48:53.267Z,36.57
2017-11-04T08:51:22.285Z,34.77
2017-11-04T08:53:50.533Z,38.23
2017-11-04T08:56:19.546Z,37.23
2017-11-04T08:58:47.796Z,38.67
2017-11-04T09:01:16.038Z,38.10
2017-11-04T09:03:44.284Z,41.97
2017-11-04T09:06:15.351Z,39.20
2017-11-04T09:08:43.608Z,35.57
2017-11-04T09:11:11.858Z,39.30
2017-11-04T09:13:40.101Z,39.73
2017-11-04T09:16:08.349Z,39.57
2017-11-04T09:18:36.593Z,41.63
2017-11-04T09:21:04.845Z,41.03
2017-11-04T09:23:33.855Z,41.90
2017-11-04T09:26:02.099Z,40.77
2017-11-04T09:28:30.350Z,38.43
2017-11-04T09:30:58.606Z,40.73
2017-11-04T09:33:26.901Z,40.13
2017-11-04T09:35:55.242Z,42.10
2017-11-04T09:38:23.534Z,41.07
2017-11-04T09:40:51.871Z,39.57
2017-11-04T09:43:20.945Z,42.27
2017-11-04T09:45:49.284Z,40.50
2017-11-04T09:48:17.589Z,41.57
2017-11-04T09:50:45.894Z,38.73
2017-11-04T09:53:14.943Z,37.27
2017-11-04T09:55:43.270Z,32.90
2017-11-04T09:58:11.592Z,34.00
2017-11-04T10:00:39.922Z,34.93
2017-11-04T10:03:09.016Z,34.27
2017-11-04T10:05:38.109Z,34.73
2017-11-04T10:08:07.200Z,31.77
2017-11-04T10:10:36.292Z,32.27
2017-11-04T10:13:04.613Z,31.97
2017-11-04T10:15:32.932Z,32.07
2017-11-04T10:18:01.278Z,33.93
2017-11-04T10:20:29.601Z,34.20
2017-11-04T10:22:58.677Z,32.27
2017-11-04T10:25:27.029Z,31.47
2017-11-04T10:27:55.344Z,35.97
2017-11-04T10:30:23.650Z,35.07
2017-11-04T10:32:51.974Z,34.73
2017-11-04T10:35:20.305Z,33.00
2017-11-04T10:37:48.615Z,33.20
2017-11-04T10:40:16.934Z,31.30
2017-11-04T10:42:46.057Z,32.30
2017-11-04T10:45:14.380Z,34.23
2017-11-04T10:47:42.698Z,32.40
2017-11-04T10:50:11.757Z,32.87
2017-11-04T10:52:40.093Z,33.93
2017-11-04T10:55:08.411Z,35.47
2017-11-04T10:57:36.742Z,34.30
2017-11-04T11:00:05.039Z,34.00
2017-11-04T11:02:33.366Z,32.97
2017-11-04T11:05:02.458Z,33.77
2017-11-04T11:07:31.534Z,28.37
2017-11-04T11:09:59.858Z,27.20
2017-11-04T11:12:28.146Z,27.63
2017-11-04T11:14:56.435Z,30.90
2017-11-04T11:17:24.764Z,31.53
2017-11-04T11:19:53.830Z,30.00
2017-11-04T11:22:22.188Z,29.00
2017-11-04T11:24:50.482Z,28.60
2017-11-04T11:27:18.785Z,28.87
2017-11-04T11:29:47.033Z,25.90
2017-11-04T11:32:15.284Z,29.47
2017-11-04T11:34:43.533Z,27.30
2017-11-04T11:37:12.541Z,29.90
2017-11-04T11:39:40.781Z,31.00
2017-11-04T11:42:09.801Z,28.60
2017-11-04T11:44:38.058Z,28.30
2017-11-04T11:47:07.072Z,28.07
2017-11-04T11:49:35.322Z,30.20
2017-11-04T11:52:04.329Z,28.13
2017-11-04T11:54:32.573Z,27.77
2017-11-04T11:57:00.830Z,26.93
2017-11-04T11:59:29.083Z,25.20
2017-11-04T12:01:57.339Z,26.90
2017-11-04T12:04:25.585Z,24.37
2017-11-04T12:06:53.846Z,25.10
2017-11-04T12:09:22.093Z,26.33
2017-11-04T12:11:50.355Z,26.63
2017-11-04T12:14:18.607Z,24.00
2017-11-04T12:16:47.625Z,26.50
2017-11-04T12:19:15.873Z,24.77
2017-11-04T12:21:44.896Z,25.60
2017-11-04T12:24:13.137Z,27.23
2017-11-04T12:26:42.160Z,25.17
2017-11-04T12:29:10.407Z,25.70
2017-11-04T12:31:39.425Z,26.40
2017-11-04T12:34:07.680Z,26.33
2017-11-04T12:36:36.700Z,25.30
2017-11-04T12:39:04.948Z,26.20
2017-11-04T12:41:33.963Z,27.17
2017-11-04T12:44:02.209Z,26.60
2017-11-04T12:46:31.229Z,24.03
2017-11-04T12:48:59.473Z,26.37
2017-11-04T12:51:28.496Z,26.73
2017-11-04T12:53:56.746Z,23.50
2017-11-04T12:56:25.764Z,23.20
2017-11-04T12:58:54.008Z,22.43
2017-11-04T13:01:22.259Z,23.23
2017-11-04T13:03:50.505Z,23.20
2017-11-04T13:06:18.762Z,24.37
2017-11-04T13:08:47.006Z,24.77
2017-11-04T13:11:16.035Z,23.60
2017-11-04T13:13:44.281Z,22.20
2017-11-04T13:16:13.298Z,24.00
2017-11-04T13:18:41.546Z,20.20
2017-11-04T13:21:10.576Z,20.17
2017-11-04T13:23:38.814Z,19.23
2017-11-04T13:26:07.834Z,19.10
2017-11-04T13:28:36.082Z,17.43
2017-11-04T13:31:05.122Z,17.90
2017-11-04T13:33:33.357Z,20.10
2017-11-04T13:36:02.376Z,21.43
2017-11-04T13:38:30.617Z,17.80
2017-11-04T13:40:59.633Z,20.67
2017-11-04T13:43:27.881Z,20.23
2017-11-04T13:45:56.145Z,20.70
2017-11-04T13:48:24.398Z,21.30
2017-11-04T13:50:52.670Z,22.30
2017-11-04T13:53:20.918Z,21.93
2017-11-04T13:55:49.165Z,21.13
2017-11-04T13:58:18.190Z,21.00
2017-11-04T14:00:46.446Z,18.83
2017-11-04T14:03:15.465Z,21.50
2017-11-04T14:05:43.709Z,21.00
2017-11-04T14:08:12.736Z,19.17
2017-11-04T14:10:40.973Z,22.30
2017-11-04T14:13:09.993Z,20.63
2017-11-04T14:15:38.251Z,20.80
2017-11-04T14:18:07.262Z,20.17
2017-11-04T14:20:35.509Z,23.30
2017-11-04T14:23:04.525Z,21.67
2017-11-04T14:25:32.777Z,21.53
2017-11-04T14:28:01.800Z,18.80
2017-11-04T14:30:30.050Z,19.60
2017-11-04T14:32:59.074Z,21.43
2017-11-04T14:35:27.325Z,20.37
2017-11-04T14:37:56.342Z,21.07
2017-11-04T14:40:24.593Z,19.10
2017-11-04T14:42:53.622Z,19.40
2017-11-04T14:45:21.869Z,20.33
2017-11-04T14:47:50.125Z,19.47
2017-11-04T14:50:19.139Z,19.60
2017-11-04T14:52:47.400Z,19.37
2017-11-04T14:55:16.406Z,19.83
2017-11-04T14:57:44.663Z,20.00
2017-11-04T15:00:13.678Z,22.37
2017-11-04T15:02:41.934Z,18.60
2017-11-04T15:05:10.954Z,19.83
2017-11-04T15:07:39.209Z,19.87
2017-11-04T15:10:08.229Z,19.03
2017-11-04T15:12:36.486Z,19.60
2017-11-04T15:15:04.745Z,18.80
2017-11-04T15:17:33.770Z,18.37
2017-11-04T15:20:02.020Z,18.70
2017-11-04T15:22:31.050Z,15.43
2017-11-04T15:24:59.304Z,21.30
2017-11-04T15:27:27.559Z,16.70
2017-11-04T15:29:56.575Z,16.00
2017-11-04T15:32:24.834Z,15.90
2017-11-04T15:34:53.860Z,17.27
2017-11-04T15:37:22.109Z,19.87
2017-11-04T15:39:50.372Z,16.50
2017-11-04T15:42:18.626Z,14.60
2017-11-04T15:44:46.873Z,16.23
2017-11-04T15:47:15.130Z,13.90
2017-11-04T15:49:43.381Z,21.20
2017-11-04T15:52:12.406Z,18.40
2017-11-04T15:54:40.661Z,15.63
2017-11-04T15:57:08.917Z,14.27
2017-11-04T15:59:37.938Z,16.90
2017-11-04T16:02:06.190Z,14.77
2017-11-04T16:04:35.202Z,17.20
2017-11-04T16:07:03.464Z,15.23
2017-11-04T16:09:32.469Z,15.07
2017-11-04T16:12:00.733Z,15.93
2017-11-04T16:14:29.754Z,16.30
2017-11-04T16:16:58.013Z,14.83
2017-11-04T16:19:26.265Z,15.27
2017-11-04T16:21:55.289Z,15.97
2017-11-04T16:24:23.545Z,14.13
2017-11-04T16:26:52.573Z,15.27
2017-11-04T16:29:20.822Z,15.63
2017-11-04T16:31:49.083Z,15.10
2017-11-04T16:34:18.107Z,15.53
2017-11-04T16:36:46.361Z,16.10
2017-11-04T16:39:15.379Z,17.20
2017-11-04T16:41:43.635Z,15.87
2017-11-04T16:44:11.889Z,14.60
2017-11-04T16:46:40.918Z,17.17
2017-11-04T16:49:09.173Z,15.70
2017-11-04T16:51:38.197Z,14.43
2017-11-04T16:54:06.441Z,16.83
2017-11-04T16:56:34.726Z,15.57
2017-11-04T16:59:02.977Z,15.40
2017-11-04T17:01:31.226Z,14.40
2017-11-04T17:03:59.546Z,15.53
2017-11-04T17:06:28.554Z,14.37
2017-11-04T17:08:56.809Z,15.20
2017-11-04T17:11:25.829Z,16.00
2017-11-04T17:13:54.097Z,15.07
2017-11-04T17:16:22.354Z,15.43
2017-11-04T17:18:51.382Z,15.63
2017-11-04T17:21:19.630Z,15.17
2017-11-04T17:23:48.753Z,14.60
2017-11-04T17:26:16.998Z,15.30
2017-11-04T17:28:46.033Z,16.00
2017-11-04T17:31:14.277Z,16.37
2017-11-04T17:33:42.541Z,19.47
2017-11-04T17:36:11.554Z,16.70
2017-11-04T17:38:39.820Z,16.07
2017-11-04T17:41:08.066Z,19.30
2017-11-04T17:43:36.321Z,18.77
2017-11-04T17:46:04.577Z,27.10
2017-11-04T17:48:32.837Z,19.13
2017-11-04T17:51:01.094Z,17.73
2017-11-04T17:53:30.131Z,18.57
2017-11-04T17:55:58.446Z,20.97
2017-11-04T17:58:26.695Z,16.80
2017-11-04T18:00:54.955Z,17.07
2017-11-04T18:03:23.210Z,17.57
2017-11-04T18:05:51.483Z,17.97
2017-11-04T18:08:19.739Z,18.47
2017-11-04T18:10:48.754Z,16.63
2017-11-04T18:13:17.013Z,17.67
2017-11-04T18:15:45.267Z,17.00
2017-11-04T18:18:14.286Z,17.00
2017-11-04T18:20:42.597Z,17.00
2017-11-04T18:23:10.843Z,18.47
2017-11-04T18:25:39.097Z,19.87
2017-11-04T18:28:08.155Z,17.73
2017-11-04T18:30:36.411Z,18.70
2017-11-04T18:33:04.725Z,21.07
2017-11-04T18:35:33.021Z,18.70
2017-11-04T18:38:02.633Z,17.90
2017-11-04T18:40:31.641Z,18.23
2017-11-04T18:42:59.901Z,20.00
2017-11-04T18:45:28.154Z,21.53
2017-11-04T18:47:56.461Z,19.80
2017-11-04T18:50:24.706Z,17.70
2017-11-04T18:52:53.014Z,19.50
2017-11-04T18:55:21.267Z,21.70
2017-11-04T18:57:50.333Z,22.23
2017-11-04T19:00:18.580Z,20.03
2017-11-04T19:02:46.838Z,20.70
2017-11-04T19:05:15.142Z,22.07
2017-11-04T19:07:43.398Z,22.73
2017-11-04T19:10:11.654Z,23.10
2017-11-04T19:12:39.914Z,21.90
2017-11-04T19:15:08.935Z,21.50
2017-11-04T19:17:37.206Z,23.70
2017-11-04T19:20:05.637Z,21.03
2017-11-04T19:22:33.980Z,21.47
2017-11-04T19:25:02.413Z,21.53
2017-11-04T19:27:30.744Z,23.30
2017-11-04T19:29:59.047Z,23.47
2017-11-04T19:32:27.353Z,25.23
2017-11-04T19:34:56.426Z,22.00
2017-11-04T19:37:24.766Z,22.00
2017-11-04T19:39:53.091Z,23.40
2017-11-04T19:42:21.467Z,25.17
2017-11-04T19:44:49.836Z,24.00
2017-11-04T19:47:18.208Z,25.60
2017-11-04T19:49:47.242Z,26.93
2017-11-04T19:52:15.546Z,28.07
2017-11-04T19:54:43.864Z,28.90
2017-11-04T19:57:12.987Z,25.43
2017-11-04T19:59:42.138Z,27.50
2017-11-04T20:02:11.264Z,25.80
2017-11-04T20:04:39.560Z,29.00
2017-11-04T20:07:08.617Z,27.20
2017-11-04T20:09:36.867Z,29.53
2017-11-04T20:12:05.126Z,27.07
2017-11-04T20:14:33.397Z,27.80
2017-11-04T20:17:01.670Z,28.37
2017-11-04T20:19:29.955Z,29.47
2017-11-04T20:21:58.220Z,31.20
2017-11-04T20:24:26.468Z,31.23
2017-11-04T20:26:55.523Z,30.90
2017-11-04T20:29:23.812Z,33.00
2017-11-04T20:31:52.051Z,36.17
2017-11-04T20:34:20.302Z,37.40
2017-11-04T20:36:49.357Z,39.30
2017-11-04T20:39:17.598Z,40.83
2017-11-04T20:41:45.896Z,35.97
2017-11-04T20:44:14.143Z,36.83
2017-11-04T20:46:42.417Z,33.60
2017-11-04T20:49:10.666Z,33.63
2017-11-04T20:51:39.728Z,37.30
2017-11-04T20:54:08.021Z,40.47
2017-11-04T20:56:36.314Z,41.40
2017-11-04T20:59:05.372Z,39.80
2017-11-04T21:01:33.654Z,42.27
2017-11-04T21:04:01.949Z,41.30
2017-11-04T21:06:30.242Z,42.80
2017-11-04T21:08:59.270Z,41.77
2017-11-04T21:11:27.535Z,41.57
2017-11-04T21:13:55.786Z,44.80
2017-11-04T21:16:24.841Z,49.33
2017-11-04T21:18:53.194Z,45.87
2017-11-04T21:21:21.473Z,46.80
2017-11-04T21:23:49.710Z,48.80
2017-11-04T21:26:18.744Z,51.00
2017-11-04T21:28:47.862Z,47.63
2017-11-04T21:31:16.119Z,49.10
2017-11-04T21:33:44.377Z,52.77
2017-11-04T21:36:12.610Z,46.70
2017-11-04T21:38:41.677Z,52.60
2017-11-04T21:41:09.966Z,55.67
2017-11-04T21:43:38.214Z,52.37
2017-11-04T21:46:06.516Z,56.87
2017-11-04T21:48:34.813Z,57.97
2017-11-04T21:51:03.876Z,57.80
2017-11-04T21:53:33.638Z,60.60
2017-11-04T21:56:01.993Z,64.07
2017-11-04T21:58:30.806Z,69.63
2017-11-04T22:00:59.110Z,67.13
2017-11-04T22:03:27.405Z,63.57
2017-11-04T22:05:55.701Z,60.37
2017-11-04T22:08:24.032Z,65.97
2017-11-04T22:10:52.334Z,72.47
2017-11-04T22:13:20.583Z,110.73
2017-11-04T22:15:49.645Z,90.87
2017-11-04T22:18:18.720Z,89.10
2017-11-04T22:20:47.013Z,75.50
2017-11-04T22:23:16.072Z,88.00
2017-11-04T22:25:44.315Z,75.07
2017-11-04T22:28:12.573Z,70.70
2017-11-04T22:30:40.821Z,61.57
2017-11-04T22:33:09.893Z,70.93
2017-11-04T22:35:38.143Z,70.10
2017-11-04T22:38:06.392Z,71.90
2017-11-04T22:40:34.637Z,65.83
2017-11-04T22:43:02.881Z,64.60
2017-11-04T22:45:31.138Z,73.80
2017-11-04T22:47:59.438Z,73.67
2017-11-04T22:50:27.678Z,79.07
2017-11-04T22:52:55.925Z,91.20
2017-11-04T22:55:25.002Z,80.63
2017-11-04T22:57:53.241Z,83.63
2017-11-04T23:00:21.540Z,84.60
2017-11-04T23:02:50.542Z,90.80
2017-11-04T23:05:18.840Z,85.80
2017-11-04T23:07:47.845Z,89.20
2017-11-04T23:10:16.097Z,85.50
2017-11-04T23:12:44.391Z,89.73
2017-11-04T23:15:13.399Z,92.30
2017-11-04T23:17:41.649Z,86.63
2017-11-04T23:20:10.746Z,86.63
2017-11-04T23:22:38.987Z,83.83
2017-11-04T23:25:07.272Z,90.67
2017-11-04T23:27:36.275Z,95.33
2017-11-04T23:30:04.526Z,96.77
2017-11-04T23:32:32.771Z,88.00
2017-11-04T23:35:01.022Z,82.43
2017-11-04T23:37:30.133Z,84.37
2017-11-04T23:39:58.387Z,84.63
2017-11-04T23:42:27.396Z,87.57
2017-11-04T23:44:55.645Z,81.87
2017-11-04T23:47:23.887Z,94.17
2017-11-04T23:49:52.142Z,95.70
2017-11-04T23:52:20.386Z,76.17
2017-11-04T23:54:49.411Z,79.73
2017-11-04T23:57:17.653Z,96.20
2017-11-04T23:59:47.389Z,90.37
